createdAt,value
2019-02-11T00:02:17.256Z,60.00
2019-02-11T00:07:21.714Z,60.05
2019-02-11T00:12:26.104Z,59.69
2019-02-11T00:17:30.546Z,59.96
2019-02-11T00:22:34.901Z,59.98
2019-02-11T00:27:39.373Z,59.80
2019-02-11T00:32:43.664Z,60.04
2019-02-11T00:37:47.838Z,59.48
2019-02-11T00:42:52.108Z,59.48
2019-02-11T00:47:56.545Z,59.88
2019-02-11T00:53:00.867Z,59.88
2019-02-11T00:58:05.242Z,58.44
2019-02-11T01:03:09.412Z,58.73
2019-02-11T01:08:13.669Z,58.72
2019-02-11T01:13:17.768Z,58.72
2019-02-11T01:18:23.097Z,59.33
2019-02-11T01:23:27.203Z,59.87
2019-02-11T01:28:31.260Z,59.23
2019-02-11T01:33:35.474Z,58.92
2019-02-11T01:38:39.588Z,59.86
2019-02-11T01:43:43.668Z,59.74
2019-02-11T01:48:47.736Z,59.74
2019-02-11T01:53:51.876Z,59.10
2019-02-11T01:58:56.094Z,59.34
2019-02-11T02:04:00.338Z,59.78
2019-02-11T02:09:05.580Z,59.78
2019-02-11T02:14:09.802Z,60.10
2019-02-11T02:19:13.922Z,60.75
2019-02-11T02:24:18.116Z,60.63
2019-02-11T02:29:22.402Z,60.38
2019-02-11T02:34:26.617Z,60.12
2019-02-11T02:39:30.843Z,59.78
2019-02-11T02:44:34.981Z,60.56
2019-02-11T02:49:39.213Z,60.66
2019-02-11T02:54:43.332Z,60.99
2019-02-11T02:59:47.587Z,60.37
2019-02-11T03:04:51.671Z,60.26
2019-02-11T03:09:56.077Z,60.41
2019-02-11T03:15:00.275Z,60.41
2019-02-11T03:20:05.110Z,60.71
2019-02-11T03:25:09.376Z,60.97
2019-02-11T03:30:13.639Z,60.97
2019-02-11T03:35:17.845Z,61.23
2019-02-11T03:40:21.991Z,61.25
2019-02-11T03:45:26.117Z,61.25
2019-02-11T03:50:30.302Z,61.15
2019-02-11T03:55:34.525Z,61.70
2019-02-11T04:00:39.192Z,61.39
2019-02-11T04:05:43.397Z,61.23
2019-02-11T04:10:47.572Z,60.93
2019-02-11T04:15:51.674Z,61.57
2019-02-11T04:20:55.726Z,61.38
2019-02-11T04:25:59.775Z,61.29
2019-02-11T04:31:04.019Z,61.29
2019-02-11T04:36:08.127Z,61.41
2019-02-11T04:41:12.272Z,62.01
2019-02-11T04:46:16.325Z,62.01
2019-02-11T04:51:20.522Z,62.16
2019-02-11T04:56:24.797Z,62.16
2019-02-11T05:01:29.046Z,62.59
2019-02-11T05:06:33.282Z,62.66
2019-02-11T05:11:37.464Z,62.33
2019-02-11T05:16:41.738Z,62.33
2019-02-11T05:21:46.098Z,62.66
2019-02-11T05:26:50.362Z,62.43
2019-02-11T05:31:54.649Z,62.43
2019-02-11T05:36:58.858Z,62.51
2019-02-11T05:42:03.004Z,62.49
2019-02-11T05:47:07.236Z,62.53
2019-02-11T05:52:11.479Z,62.52
2019-02-11T05:57:15.707Z,62.15
2019-02-11T06:02:22.374Z,62.08
2019-02-11T06:07:26.439Z,62.46
2019-02-11T06:12:30.593Z,62.29
2019-02-11T06:17:34.695Z,62.26
2019-02-11T06:22:38.926Z,62.50
2019-02-11T06:27:43.148Z,62.46
2019-02-11T06:32:47.409Z,62.25
2019-02-11T06:37:51.679Z,62.46
2019-02-11T06:42:55.976Z,62.52
2019-02-11T06:48:00.306Z,62.52
2019-02-11T06:53:04.433Z,62.60
2019-02-11T06:58:08.763Z,62.94
2019-02-11T07:03:13.239Z,62.94
2019-02-11T07:08:17.514Z,62.32
2019-02-11T07:13:21.689Z,62.08
2019-02-11T07:18:26.083Z,62.37
2019-02-11T07:23:30.196Z,62.46
2019-02-11T07:28:34.436Z,62.46
2019-02-11T07:33:38.639Z,62.72
2019-02-11T07:38:42.796Z,62.72
2019-02-11T07:44:00.778Z,62.25
2019-02-11T07:49:04.931Z,58.70
2019-02-11T07:54:09.084Z,58.70
2019-02-11T07:59:13.221Z,62.42
2019-02-11T08:04:17.632Z,61.01
2019-02-11T08:09:21.951Z,54.83
2019-02-11T08:14:26.140Z,52.09
2019-02-11T08:19:30.209Z,52.09
2019-02-11T08:24:34.318Z,51.08
2019-02-11T08:29:38.609Z,51.08
2019-02-11T08:34:42.657Z,51.08
2019-02-11T08:39:46.930Z,52.30
2019-02-11T08:44:51.108Z,53.50
2019-02-11T08:49:55.205Z,54.02
2019-02-11T08:54:59.270Z,54.38
2019-02-11T09:00:03.698Z,54.38
2019-02-11T09:05:08.681Z,53.85
2019-02-11T09:10:13.447Z,53.85
2019-02-11T09:15:17.612Z,54.84
2019-02-11T09:20:21.783Z,55.08
2019-02-11T09:25:25.954Z,55.04
2019-02-11T09:30:30.183Z,54.51
2019-02-11T09:35:34.380Z,55.13
2019-02-11T09:40:38.584Z,54.39
2019-02-11T09:45:42.818Z,55.17
2019-02-11T09:50:49.391Z,55.17
2019-02-11T09:55:53.550Z,55.69
2019-02-11T10:00:57.815Z,56.34
2019-02-11T10:06:01.968Z,56.20
2019-02-11T10:11:06.125Z,56.12
2019-02-11T10:16:12.516Z,56.73
2019-02-11T10:21:16.584Z,56.77
2019-02-11T10:26:20.782Z,56.50
2019-02-11T10:31:24.966Z,56.50
2019-02-11T10:36:29.007Z,56.49
2019-02-11T10:41:33.066Z,56.49
2019-02-11T10:46:37.293Z,56.48
2019-02-11T10:51:41.432Z,56.48
2019-02-11T10:56:45.632Z,56.58
2019-02-11T11:01:49.872Z,56.47
2019-02-11T11:06:54.119Z,57.51
2019-02-11T11:11:58.196Z,57.76
2019-02-11T11:17:02.449Z,57.21
2019-02-11T11:22:06.660Z,58.13
2019-02-11T11:27:10.776Z,57.73
2019-02-11T11:32:15.445Z,56.85
2019-02-11T11:37:19.723Z,57.26
2019-02-11T11:42:23.916Z,57.46
2019-02-11T11:47:28.190Z,58.01
2019-02-11T11:52:32.293Z,57.95
2019-02-11T11:57:36.557Z,57.96
2019-02-11T12:02:40.670Z,58.90
2019-02-11T12:07:44.864Z,58.46
2019-02-11T12:12:49.085Z,58.43
2019-02-11T12:17:53.598Z,59.83
2019-02-11T12:22:57.904Z,60.07
2019-02-11T12:28:02.190Z,60.07
2019-02-11T12:33:06.418Z,59.44
2019-02-11T12:38:10.582Z,59.49
2019-02-11T12:43:14.601Z,59.13
2019-02-11T12:48:18.616Z,52.56
2019-02-11T12:53:22.637Z,50.74
2019-02-11T12:58:26.816Z,53.55
2019-02-11T13:03:30.974Z,46.99
2019-02-11T13:08:36.111Z,46.99
2019-02-11T13:13:40.433Z,46.22
2019-02-11T13:18:44.549Z,46.92
2019-02-11T13:23:48.831Z,47.98
2019-02-11T13:28:52.921Z,47.98
2019-02-11T13:33:56.963Z,48.29
2019-02-11T13:39:01.108Z,49.52
2019-02-11T13:44:05.298Z,49.52
2019-02-11T13:49:11.486Z,50.45
2019-02-11T13:54:15.589Z,51.80
2019-02-11T13:59:19.814Z,51.75
2019-02-11T14:04:27.919Z,52.44
2019-02-11T14:09:30.088Z,53.34
2019-02-11T14:14:34.253Z,53.90
2019-02-11T14:19:38.446Z,53.32
2019-02-11T14:24:42.458Z,54.43
2019-02-11T14:29:46.582Z,55.23
2019-02-11T14:34:50.736Z,55.66
2019-02-11T14:39:54.781Z,55.91
2019-02-11T14:44:58.884Z,55.91
2019-02-11T14:50:03.087Z,56.29
2019-02-11T14:55:07.434Z,56.11
2019-02-11T15:00:17.047Z,56.03
2019-02-11T15:05:21.263Z,56.70
2019-02-11T15:10:25.294Z,57.00
2019-02-11T15:15:29.468Z,57.34
2019-02-11T15:20:33.508Z,57.16
2019-02-11T15:25:37.675Z,57.57
2019-02-11T15:30:41.726Z,57.57
2019-02-11T15:35:45.753Z,57.51
2019-02-11T15:40:49.792Z,57.99
2019-02-11T15:45:53.828Z,57.99
2019-02-11T15:50:57.901Z,57.73
2019-02-11T15:56:07.728Z,57.69
2019-02-11T16:01:07.811Z,57.83
2019-02-11T16:06:11.918Z,57.85
2019-02-11T16:11:16.019Z,57.95
2019-02-11T16:16:20.065Z,57.96
2019-02-11T16:21:24.145Z,57.85
2019-02-11T16:26:28.331Z,58.45
2019-02-11T16:31:32.413Z,58.49
2019-02-11T16:36:36.546Z,58.48
2019-02-11T16:41:40.633Z,58.36
2019-02-11T16:46:44.751Z,58.34
2019-02-11T16:51:48.895Z,58.30
2019-02-11T16:56:52.993Z,58.08
2019-02-11T17:01:57.291Z,58.49
2019-02-11T17:07:01.531Z,58.67
2019-02-11T17:12:05.838Z,58.67
2019-02-11T17:17:10.138Z,59.75
2019-02-11T17:22:14.435Z,59.75
2019-02-11T17:27:18.537Z,59.09
2019-02-11T17:32:22.710Z,59.45
2019-02-11T17:37:26.957Z,58.78
2019-02-11T17:42:31.059Z,58.46
2019-02-11T17:47:35.193Z,58.00
2019-02-11T17:52:39.473Z,57.61
2019-02-11T17:57:43.771Z,56.95
2019-02-11T18:02:47.947Z,56.89
2019-02-11T18:07:52.167Z,57.12
2019-02-11T18:13:01.171Z,57.12
2019-02-11T18:18:05.520Z,57.19
2019-02-11T18:23:09.649Z,57.54
2019-02-11T18:28:13.891Z,57.04
2019-02-11T18:33:18.083Z,57.00
2019-02-11T18:38:22.316Z,57.00
2019-02-11T18:43:26.651Z,56.96
2019-02-11T18:48:30.896Z,56.70
2019-02-11T18:53:36.069Z,56.65
2019-02-11T18:58:40.365Z,56.78
2019-02-11T19:03:44.493Z,56.78
2019-02-11T19:08:48.577Z,57.30
2019-02-11T19:13:52.739Z,57.93
2019-02-11T19:18:56.855Z,57.71
2019-02-11T19:24:00.975Z,57.19
2019-02-11T19:29:05.209Z,57.98
2019-02-11T19:34:09.348Z,57.73
2019-02-11T19:39:15.596Z,57.58
2019-02-11T19:44:19.743Z,57.00
2019-02-11T19:49:23.897Z,57.39
2019-02-11T19:54:28.005Z,57.22
2019-02-11T19:59:32.016Z,58.08
2019-02-11T20:04:36.195Z,57.40
2019-02-11T20:09:40.350Z,56.46
2019-02-11T20:14:44.419Z,56.73
2019-02-11T20:19:48.643Z,56.73
2019-02-11T20:24:52.698Z,56.57
2019-02-11T20:29:56.764Z,56.59
2019-02-11T20:35:00.895Z,56.59
2019-02-11T20:40:05.806Z,55.87
2019-02-11T20:45:12.811Z,56.57
2019-02-11T20:50:16.913Z,56.08
2019-02-11T20:55:21.085Z,56.53
2019-02-11T21:00:25.386Z,56.53
2019-02-11T21:05:29.519Z,56.48
2019-02-11T21:10:33.561Z,57.89
2019-02-11T21:15:37.716Z,56.81
2019-02-11T21:20:41.927Z,56.81
2019-02-11T21:25:46.105Z,57.89
2019-02-11T21:30:50.527Z,57.89
2019-02-11T21:35:54.678Z,57.56
2019-02-11T21:40:58.853Z,58.05
2019-02-11T21:46:02.930Z,57.85
2019-02-11T21:51:07.093Z,57.60
2019-02-11T21:56:11.199Z,57.60
2019-02-11T22:01:15.249Z,57.23
2019-02-11T22:06:19.370Z,57.45
2019-02-11T22:11:23.462Z,57.28
2019-02-11T22:16:27.513Z,57.28
2019-02-11T22:21:31.589Z,57.58
2019-02-11T22:26:35.657Z,57.78
2019-02-11T22:31:39.769Z,57.71
2019-02-11T22:36:43.806Z,57.71
2019-02-11T22:41:47.848Z,57.67
2019-02-11T22:46:51.891Z,57.70
2019-02-11T22:51:56.158Z,57.44
2019-02-11T22:57:00.247Z,57.44
2019-02-11T23:02:04.860Z,57.65
2019-02-11T23:07:09.229Z,56.71
2019-02-11T23:12:13.600Z,57.05
2019-02-11T23:17:17.940Z,57.19
2019-02-11T23:22:22.333Z,57.04
2019-02-11T23:27:26.482Z,57.04
2019-02-11T23:32:30.842Z,57.08
2019-02-11T23:37:35.299Z,56.82
2019-02-11T23:42:39.670Z,56.84
2019-02-11T23:47:43.957Z,56.77
2019-02-11T23:52:48.276Z,56.58
2019-02-11T23:57:52.553Z,56.77
